»·PEaware :: ASA228 KLAX-MMPR

ASA228 :: KLAX-MMPR

FLIGHT INFORMATION

Flight Status: Arrived
Operator:
Alaska Airlines
More flights by this operator :: More flights under this callsign
Pilot: Jerome G. (4242)
Aircraft: BOEING 737-700
(B737)
More flights by this aircraft type
Origin: KLAX Los Angeles Intl
United States
Destination: MMPR Lic Gustavo Diaz Ordaz Intl
Mexico
More flights between these airports :: More routes between these airports
Route: PNDAH2 OTAYY DCT TIJ UT4 LMM UJ3 MZT J141 PVR DCT
File this flight plan on PilotEdge
Remarks:
Altitude:
(Current/Filed)
37,000ft
Speed:
(Current/Filed)
461kts
Departed: 16-Sep-18 12:24 PM
Arrived: 16-Sep-18 03:00 PM
Distance/Time
Traveled:
1059nm/2:35
Distance/Time
To Go:
Arrived

Flight Plot

Page will automatically refresh every two minutes.

Flight plan parsing failed; only flown route is shown


Map Options




Map Legend


Flown Route
Filed Route
Departure Airport
Arrival Airport
Navaid (VOR, NDB)
Fix

Horizontal Profiles

Position Reports

Time Latitude Longitude Heading Altitude Ground
Speed
16-Sep-18 12:06 33.946978 -118.408473 132 134ft 0kts
16-Sep-18 12:07 33.946978 -118.408473 132 134ft 0kts
16-Sep-18 12:08 33.946978 -118.408473 132 134ft 0kts
16-Sep-18 12:09 33.946978 -118.408473 132 134ft 0kts
16-Sep-18 12:10 33.946978 -118.408473 132 134ft 0kts
16-Sep-18 12:11 33.946978 -118.408473 132 134ft 0kts
16-Sep-18 12:12 33.946978 -118.408473 132 134ft 0kts
16-Sep-18 12:13 33.946978 -118.408473 132 134ft 0kts
16-Sep-18 12:14 33.946978 -118.408473 132 134ft 0kts
16-Sep-18 12:15 33.946978 -118.408473 132 134ft 0kts
16-Sep-18 12:16 33.946978 -118.408473 132 134ft 0kts
16-Sep-18 12:17 33.947033 -118.408544 132 134ft 2kts
16-Sep-18 12:18 33.947452 -118.409108 108 134ft 2kts
16-Sep-18 12:19 33.947438 -118.409626 82 134ft 0kts
16-Sep-18 12:20 33.947438 -118.409626 82 134ft 0kts
16-Sep-18 12:21 33.947438 -118.409626 82 134ft 0kts
16-Sep-18 12:22 33.947630 -118.407767 84 134ft 22kts
16-Sep-18 12:23 33.948138 -118.403273 61 134ft 6kts
16-Sep-18 12:24 33.949082 -118.402088 67 134ft 1kts
16-Sep-18 12:25 33.950125 -118.402261 265 134ft 7kts
16-Sep-18 12:26 33.946784 -118.436250 261 884ft 153kts
16-Sep-18 12:27 33.940432 -118.492881 266 2719ft 211kts
16-Sep-18 12:28 33.936948 -118.576018 264 4525ft 273kts
16-Sep-18 12:29 33.896519 -118.642563 188 7003ft 273kts
16-Sep-18 12:30 33.821859 -118.621502 150 10344ft 289kts
16-Sep-18 12:31 33.748268 -118.562246 149 12185ft 351kts
16-Sep-18 12:32 33.677537 -118.477135 123 14962ft 382kts
16-Sep-18 12:33 33.628069 -118.360156 121 17647ft 400kts
16-Sep-18 12:34 33.576336 -118.239981 122 19995ft 417kts
16-Sep-18 12:35 33.522585 -118.115551 122 22042ft 432kts
16-Sep-18 12:36 33.466318 -117.995618 133 23694ft 438kts
16-Sep-18 12:37 33.378765 -117.894861 144 25255ft 441kts
16-Sep-18 12:38 33.285817 -117.796513 144 26667ft 452kts
16-Sep-18 12:39 33.190441 -117.695912 144 27969ft 461kts
16-Sep-18 12:40 33.096056 -117.593356 142 29117ft 471kts
16-Sep-18 12:41 32.999719 -117.485884 142 30150ft 479kts
16-Sep-18 12:42 32.905497 -117.381518 142 31630ft 474kts
16-Sep-18 12:43 32.829741 -117.297231 142 32819ft 470kts
16-Sep-18 12:44 32.740477 -117.198899 143 34204ft 466kts
16-Sep-18 12:45 32.647336 -117.094471 138 35583ft 466kts
16-Sep-18 12:46 32.561022 -116.980453 138 36778ft 464kts
16-Sep-18 12:47 32.472878 -116.867494 138 37218ft 467kts
16-Sep-18 12:48 32.398441 -116.772674 138 38269ft 460kts
16-Sep-18 12:49 32.311578 -116.662267 138 39006ft 460kts
16-Sep-18 12:50 32.224320 -116.551961 138 39015ft 458kts
16-Sep-18 12:51 32.137372 -116.442323 138 39006ft 458kts
16-Sep-18 12:52 32.050470 -116.333105 138 38977ft 457kts
16-Sep-18 12:53 31.963232 -116.223682 138 38964ft 457kts
16-Sep-18 12:54 31.876461 -116.114396 138 38955ft 457kts
16-Sep-18 12:55 31.789049 -116.005352 138 38947ft 457kts
16-Sep-18 12:56 31.701740 -115.896971 138 38953ft 457kts
16-Sep-18 12:57 31.614239 -115.788953 138 38927ft 456kts
16-Sep-18 12:58 31.526438 -115.680916 138 38906ft 456kts
16-Sep-18 12:59 31.439055 -115.573139 138 38873ft 456kts
16-Sep-18 13:00 31.351609 -115.465727 137 38866ft 456kts
16-Sep-18 13:01 31.263791 -115.358283 137 38862ft 456kts
16-Sep-18 13:02 31.176203 -115.251442 137 38857ft 455kts
16-Sep-18 13:03 31.088667 -115.144726 137 38865ft 455kts
16-Sep-18 13:04 31.000708 -115.038065 137 38891ft 455kts
16-Sep-18 13:05 30.912956 -114.932087 137 38900ft 455kts
16-Sep-18 13:06 30.824840 -114.825918 137 38902ft 454kts
16-Sep-18 13:07 30.736989 -114.720471 137 38903ft 454kts
16-Sep-18 13:08 30.649139 -114.615201 136 38904ft 454kts
16-Sep-18 13:09 30.561172 -114.509603 136 38901ft 453kts
16-Sep-18 13:10 30.473366 -114.404705 136 38902ft 453kts
16-Sep-18 13:11 30.385540 -114.300136 136 38902ft 453kts
16-Sep-18 13:12 30.297360 -114.195448 136 38903ft 453kts
16-Sep-18 13:13 30.209453 -114.091371 136 38903ft 452kts
16-Sep-18 13:14 30.121507 -113.987525 136 38903ft 452kts
16-Sep-18 13:15 30.033206 -113.883533 136 38902ft 452kts
16-Sep-18 13:16 29.945255 -113.779998 136 38901ft 452kts
16-Sep-18 13:17 29.857012 -113.676763 136 38902ft 452kts
16-Sep-18 13:18 29.781042 -113.588084 136 38902ft 453kts
16-Sep-18 13:19 29.692556 -113.485261 136 38917ft 452kts
16-Sep-18 13:20 29.603643 -113.382237 136 38929ft 453kts
16-Sep-18 13:21 29.515062 -113.279523 135 38930ft 453kts
16-Sep-18 13:22 29.426455 -113.176886 135 38930ft 453kts
16-Sep-18 13:23 29.337358 -113.074090 135 38930ft 453kts
16-Sep-18 13:24 29.248407 -112.971782 135 38925ft 454kts
16-Sep-18 13:25 29.159368 -112.869637 135 38923ft 454kts
16-Sep-18 13:26 29.069870 -112.767269 135 38910ft 454kts
16-Sep-18 13:27 28.980570 -112.665388 135 38884ft 454kts
16-Sep-18 13:28 28.891212 -112.563701 135 38881ft 454kts
16-Sep-18 13:29 28.801520 -112.461896 135 38881ft 454kts
16-Sep-18 13:30 28.712037 -112.360586 134 38879ft 454kts
16-Sep-18 13:31 28.622354 -112.259316 134 38878ft 454kts
16-Sep-18 13:32 28.532302 -112.157883 134 38876ft 455kts
16-Sep-18 13:33 28.442468 -112.056950 134 38873ft 455kts
16-Sep-18 13:34 28.352216 -111.955812 134 38853ft 455kts
16-Sep-18 13:35 28.262139 -111.855110 134 38835ft 455kts
16-Sep-18 13:36 28.171985 -111.754581 134 38830ft 455kts
16-Sep-18 13:37 28.081455 -111.653893 134 38825ft 455kts
16-Sep-18 13:38 27.991076 -111.553621 134 38820ft 455kts
16-Sep-18 13:39 27.900649 -111.453536 134 38812ft 456kts
16-Sep-18 13:40 27.809763 -111.353194 134 38811ft 456kts
16-Sep-18 13:41 27.719055 -111.253298 133 38813ft 456kts
16-Sep-18 13:42 27.643344 -111.170116 133 38813ft 457kts
16-Sep-18 13:43 27.536861 -111.053390 133 38814ft 457kts
16-Sep-18 13:44 27.460950 -110.970389 133 38820ft 457kts
16-Sep-18 13:45 27.354476 -110.854265 133 38819ft 457kts
16-Sep-18 13:46 27.278055 -110.771098 133 38822ft 458kts
16-Sep-18 13:47 27.186629 -110.671827 133 38824ft 457kts
16-Sep-18 13:48 27.109713 -110.588500 133 38826ft 458kts
16-Sep-18 13:49 27.018167 -110.489536 133 38828ft 457kts
16-Sep-18 13:50 26.926569 -110.390755 133 38829ft 457kts
16-Sep-18 13:51 26.834617 -110.291822 133 38832ft 457kts
16-Sep-18 13:52 26.742909 -110.193397 133 38832ft 457kts
16-Sep-18 13:53 26.650836 -110.094810 133 38833ft 457kts
16-Sep-18 13:54 26.558983 -109.996688 133 38835ft 457kts
16-Sep-18 13:55 26.466989 -109.898642 133 38837ft 458kts
16-Sep-18 13:56 26.374591 -109.800388 133 38845ft 458kts
16-Sep-18 13:57 26.282417 -109.702603 133 38854ft 458kts
16-Sep-18 13:58 26.190193 -109.604988 133 38856ft 458kts
16-Sep-18 13:59 26.097585 -109.507193 133 38858ft 458kts
16-Sep-18 14:00 26.005155 -109.409804 133 38860ft 458kts
16-Sep-18 14:01 25.912586 -109.312448 133 38860ft 458kts
16-Sep-18 14:02 25.819610 -109.214788 133 38860ft 459kts
16-Sep-18 14:03 25.726653 -109.117606 133 38860ft 460kts
16-Sep-18 14:04 25.635088 -109.018189 130 38860ft 459kts
16-Sep-18 14:05 25.546384 -108.916498 130 38859ft 460kts
16-Sep-18 14:06 25.457282 -108.815004 130 38859ft 460kts
16-Sep-18 14:07 25.367893 -108.713064 130 38858ft 460kts
16-Sep-18 14:08 25.278629 -108.611657 130 38857ft 461kts
16-Sep-18 14:09 25.189164 -108.510343 130 38838ft 461kts
16-Sep-18 14:10 25.099327 -108.408860 130 38831ft 461kts
16-Sep-18 14:11 25.009592 -108.307729 130 38826ft 462kts
16-Sep-18 14:12 24.919787 -108.206742 131 38821ft 462kts
16-Sep-18 14:13 24.829527 -108.105475 131 38818ft 462kts
16-Sep-18 14:14 24.739464 -108.004650 131 38810ft 462kts
16-Sep-18 14:15 24.648847 -107.903427 131 38807ft 463kts
16-Sep-18 14:16 24.558499 -107.802728 131 38805ft 463kts
16-Sep-18 14:17 24.467984 -107.702071 131 38805ft 464kts
16-Sep-18 14:18 24.389781 -107.615258 131 38805ft 463kts
16-Sep-18 14:19 24.299199 -107.514926 131 38806ft 463kts
16-Sep-18 14:20 24.208600 -107.414787 131 38808ft 463kts
16-Sep-18 14:21 24.117626 -107.314444 131 38818ft 463kts
16-Sep-18 14:22 24.026935 -107.214626 132 38834ft 463kts
16-Sep-18 14:23 23.936279 -107.115054 132 38840ft 462kts
16-Sep-18 14:24 23.845300 -107.015345 132 38844ft 462kts
16-Sep-18 14:25 23.754618 -106.916162 132 38846ft 462kts
16-Sep-18 14:26 23.664055 -106.817142 132 38845ft 461kts
16-Sep-18 14:27 23.573000 -106.718047 133 38841ft 461kts
16-Sep-18 14:28 23.482269 -106.619441 133 38836ft 461kts
16-Sep-18 14:29 23.391550 -106.520937 133 38830ft 461kts
16-Sep-18 14:30 23.300661 -106.422075 133 38824ft 461kts
16-Sep-18 14:31 23.209830 -106.323791 133 38820ft 461kts
16-Sep-18 14:32 23.103806 -106.245933 156 38820ft 465kts
16-Sep-18 14:33 22.983253 -106.195333 157 38824ft 465kts
16-Sep-18 14:34 22.862564 -106.144267 157 38827ft 464kts
16-Sep-18 14:35 22.742454 -106.093485 157 38833ft 463kts
16-Sep-18 14:36 22.622435 -106.042818 157 38843ft 463kts
16-Sep-18 14:37 22.502182 -105.992155 158 38855ft 462kts
16-Sep-18 14:38 22.382689 -105.941894 158 38869ft 461kts
16-Sep-18 14:39 22.263234 -105.891601 158 38885ft 461kts
16-Sep-18 14:40 22.143614 -105.841388 158 36617ft 460kts
16-Sep-18 14:41 22.023986 -105.791220 158 33565ft 464kts
16-Sep-18 14:42 21.903229 -105.740746 158 30450ft 464kts
16-Sep-18 14:43 21.784177 -105.691085 158 27845ft 452kts
16-Sep-18 14:44 21.668333 -105.642942 158 25255ft 442kts
16-Sep-18 14:45 21.554889 -105.595863 158 22696ft 430kts
16-Sep-18 14:46 21.445772 -105.550617 158 20163ft 412kts
16-Sep-18 14:47 21.341693 -105.507452 159 17915ft 391kts
16-Sep-18 14:48 21.255646 -105.471809 158 15867ft 379kts
16-Sep-18 14:49 21.159028 -105.431897 157 13477ft 366kts
16-Sep-18 14:50 21.066019 -105.393556 157 11128ft 351kts
16-Sep-18 14:51 20.980766 -105.358462 156 10248ft 300kts
16-Sep-18 14:52 20.939369 -105.292946 99 8989ft 278kts
16-Sep-18 14:53 20.940716 -105.211445 94 7411ft 271kts
16-Sep-18 14:54 20.923421 -105.137432 113 6424ft 246kts
16-Sep-18 14:55 20.890941 -105.079033 137 5339ft 208kts
16-Sep-18 14:56 20.840687 -105.074742 214 4561ft 176kts
16-Sep-18 14:57 20.809210 -105.106548 224 3731ft 173kts
16-Sep-18 14:58 20.776860 -105.142821 225 2905ft 162kts
16-Sep-18 14:59 20.748036 -105.175513 226 1788ft 131kts
16-Sep-18 15:00 20.723289 -105.203731 228 1065ft 128kts
16-Sep-18 15:01 20.700410 -105.230987 227 345ft 122kts
16-Sep-18 15:02 20.681063 -105.253051 227 31ft 20kts
16-Sep-18 15:03 20.679616 -105.252171 54 31ft 5kts
16-Sep-18 15:04 20.680395 -105.249838 137 31ft 9kts
16-Sep-18 15:05 20.681057 -105.247490 44 31ft 8kts
16-Sep-18 15:06 20.681114 -105.246222 144 31ft 0kts
16-Sep-18 15:07 20.680202 -105.246194 227 31ft 2kts
16-Sep-18 15:08 20.680196 -105.246201 228 31ft 0kts

Navigation Log

Ident Type
Flight plan parsing failed, navigation log unavailable